Terminal Aerodrome Forecast
Issued by NWS Corpus Christi, TX

Home | Current Version | Previous Version | Text Only | Print | Product List | Glossary On
Versions: 1 2 3 4 5 6 7 8 9 10 11 12
000
FTUS44 KCRP 061124
TAFVCT
TAF
KVCT 061124Z 0612/0712 05006KT P6SM SKC
     FM061400 09005KT P6SM SCT025
     FM061900 09008G15KT P6SM SCT035 BKN200
     FM070200 14005KT P6SM SCT030 BKN200
     FM070900 VRB03KT P6SM BKN025 OVC200=

USA.gov is the U.S. government's official web portal to all federal, state and local government web resources and services.